sensor_id;sensor_type;location;lat;lon;timestamp;pressure;altitude;pressure_sealevel;temperature;humidity
19520;BME280;9904;52.246;20.898;2023-10-09T00:02:10;100940.19;;;2.00;78.91
19520;BME280;9904;52.246;20.898;2023-10-09T00:04:38;100934.50;;;1.89;79.39
19520;BME280;9904;52.246;20.898;2023-10-09T00:07:08;100936.09;;;1.93;79.75
19520;BME280;9904;52.246;20.898;2023-10-09T00:09:37;100934.28;;;1.94;79.04
19520;BME280;9904;52.246;20.898;2023-10-09T00:12:19;100936.25;;;1.90;79.55
19520;BME280;9904;52.246;20.898;2023-10-09T00:14:50;100930.38;;;1.66;80.50
19520;BME280;9904;52.246;20.898;2023-10-09T00:17:23;100929.66;;;1.62;80.67
19520;BME280;9904;52.246;20.898;2023-10-09T00:19:50;100933.97;;;1.65;80.86
19520;BME280;9904;52.246;20.898;2023-10-09T00:22:26;100932.09;;;1.67;80.57
19520;BME280;9904;52.246;20.898;2023-10-09T00:24:55;100940.47;;;1.59;81.26
19520;BME280;9904;52.246;20.898;2023-10-09T00:27:43;100923.47;;;1.62;80.73
19520;BME280;9904;52.246;20.898;2023-10-09T00:30:14;100918.59;;;1.70;80.58
19520;BME280;9904;52.246;20.898;2023-10-09T00:32:45;100921.50;;;1.65;80.97
19520;BME280;9904;52.246;20.898;2023-10-09T00:35:27;100913.56;;;1.64;81.05
19520;BME280;9904;52.246;20.898;2023-10-09T00:38:05;100908.44;;;1.59;81.19
19520;BME280;9904;52.246;20.898;2023-10-09T00:40:48;100898.75;;;1.58;81.27
19520;BME280;9904;52.246;20.898;2023-10-09T00:43:24;100895.59;;;1.67;81.38
19520;BME280;9904;52.246;20.898;2023-10-09T00:45:57;100898.91;;;1.72;81.31
19520;BME280;9904;52.246;20.898;2023-10-09T00:48:29;100901.00;;;1.83;80.74
19520;BME280;9904;52.246;20.898;2023-10-09T00:50:58;100898.66;;;1.77;81.09
19520;BME280;9904;52.246;20.898;2023-10-09T00:53:27;100892.84;;;1.69;81.35
19520;BME280;9904;52.246;20.898;2023-10-09T00:56:01;100888.69;;;1.63;81.40
19520;BME280;9904;52.246;20.898;2023-10-09T00:58:48;100889.31;;;1.68;81.43
19520;BME280;9904;52.246;20.898;2023-10-09T01:01:25;100882.94;;;1.71;81.55
19520;BME280;9904;52.246;20.898;2023-10-09T01:04:04;100885.56;;;1.72;81.61
19520;BME280;9904;52.246;20.898;2023-10-09T01:06:41;100889.16;;;1.71;81.26
19520;BME280;9904;52.246;20.898;2023-10-09T01:09:12;100883.91;;;1.70;81.70
19520;BME280;9904;52.246;20.898;2023-10-09T01:11:41;100879.81;;;1.80;81.31
19520;BME280;9904;52.246;20.898;2023-10-09T01:14:15;100868.19;;;1.81;81.43
19520;BME280;9904;52.246;20.898;2023-10-09T01:16:43;100865.19;;;1.87;81.68
19520;BME280;9904;52.246;20.898;2023-10-09T01:19:10;100868.19;;;1.81;81.72
19520;BME280;9904;52.246;20.898;2023-10-09T01:21:47;100862.56;;;1.70;81.95
19520;BME280;9904;52.246;20.898;2023-10-09T01:24:14;100863.25;;;1.73;82.27
19520;BME280;9904;52.246;20.898;2023-10-09T01:26:43;100848.88;;;1.76;81.71
19520;BME280;9904;52.246;20.898;2023-10-09T01:29:21;100853.78;;;2.01;80.49
19520;BME280;9904;52.246;20.898;2023-10-09T01:31:50;100845.78;;;2.01;80.46
19520;BME280;9904;52.246;20.898;2023-10-09T01:34:30;100836.59;;;2.07;80.06
19520;BME280;9904;52.246;20.898;2023-10-09T01:37:20;100848.44;;;2.01;80.00
19520;BME280;9904;52.246;20.898;2023-10-09T01:39:58;100860.09;;;2.16;79.72
19520;BME280;9904;52.246;20.898;2023-10-09T01:42:26;100862.50;;;2.05;80.10
19520;BME280;9904;52.246;20.898;2023-10-09T01:44:57;100846.16;;;1.94;80.21
19520;BME280;9904;52.246;20.898;2023-10-09T01:47:37;100850.22;;;2.01;79.92
19520;BME280;9904;52.246;20.898;2023-10-09T01:50:07;100844.25;;;2.13;79.29
19520;BME280;9904;52.246;20.898;2023-10-09T01:52:48;100846.03;;;2.13;79.15
19520;BME280;9904;52.246;20.898;2023-10-09T01:55:16;100851.63;;;2.08;79.58
19520;BME280;9904;52.246;20.898;2023-10-09T01:58:15;100850.88;;;2.06;80.47
19520;BME280;9904;52.246;20.898;2023-10-09T02:00:48;100833.91;;;2.07;80.14
19520;BME280;9904;52.246;20.898;2023-10-09T02:03:20;100841.13;;;2.05;80.52
19520;BME280;9904;52.246;20.898;2023-10-09T02:05:51;100828.50;;;2.25;79.99
19520;BME280;9904;52.246;20.898;2023-10-09T02:08:20;100834.88;;;2.22;80.00
19520;BME280;9904;52.246;20.898;2023-10-09T02:11:02;100837.13;;;2.30;79.86
19520;BME280;9904;52.246;20.898;2023-10-09T02:13:29;100836.16;;;2.31;79.49
19520;BME280;9904;52.246;20.898;2023-10-09T02:15:56;100829.44;;;2.24;79.61
19520;BME280;9904;52.246;20.898;2023-10-09T02:18:39;100817.22;;;2.19;79.47
19520;BME280;9904;52.246;20.898;2023-10-09T02:21:08;100832.13;;;2.40;78.79
19520;BME280;9904;52.246;20.898;2023-10-09T02:23:35;100836.28;;;2.45;78.52
19520;BME280;9904;52.246;20.898;2023-10-09T02:26:07;100828.34;;;2.44;78.37
19520;BME280;9904;52.246;20.898;2023-10-09T02:28:35;100825.94;;;2.55;77.87
19520;BME280;9904;52.246;20.898;2023-10-09T02:31:11;100827.72;;;2.54;77.95
19520;BME280;9904;52.246;20.898;2023-10-09T02:33:40;100829.81;;;2.65;77.71
19520;BME280;9904;52.246;20.898;2023-10-09T02:36:07;100817.47;;;2.63;77.75
19520;BME280;9904;52.246;20.898;2023-10-09T02:38:34;100816.00;;;2.57;77.77
19520;BME280;9904;52.246;20.898;2023-10-09T02:41:07;100823.94;;;2.43;78.63
19520;BME280;9904;52.246;20.898;2023-10-09T02:43:36;100830.41;;;2.38;79.21
19520;BME280;9904;52.246;20.898;2023-10-09T02:46:14;100828.84;;;2.34;79.37
19520;BME280;9904;52.246;20.898;2023-10-09T02:48:48;100812.41;;;2.26;79.87
19520;BME280;9904;52.246;20.898;2023-10-09T02:51:23;100818.25;;;2.17;80.16
19520;BME280;9904;52.246;20.898;2023-10-09T02:53:56;100821.59;;;2.20;80.22
19520;BME280;9904;52.246;20.898;2023-10-09T02:56:25;100816.06;;;2.24;80.27
19520;BME280;9904;52.246;20.898;2023-10-09T02:59:04;100810.28;;;2.15;80.96
19520;BME280;9904;52.246;20.898;2023-10-09T03:01:38;100813.53;;;2.04;81.37
19520;BME280;9904;52.246;20.898;2023-10-09T03:04:05;100812.69;;;2.04;81.55
19520;BME280;9904;52.246;20.898;2023-10-09T03:06:33;100820.63;;;2.05;81.47
19520;BME280;9904;52.246;20.898;2023-10-09T03:09:04;100821.44;;;1.90;82.35
19520;BME280;9904;52.246;20.898;2023-10-09T03:11:48;100820.84;;;1.85;83.19
19520;BME280;9904;52.246;20.898;2023-10-09T03:14:20;100808.34;;;1.85;82.92
19520;BME280;9904;52.246;20.898;2023-10-09T03:16:47;100808.28;;;1.87;83.10
19520;BME280;9904;52.246;20.898;2023-10-09T03:19:17;100812.00;;;2.00;82.74
19520;BME280;9904;52.246;20.898;2023-10-09T03:21:43;100813.31;;;2.09;82.29
19520;BME280;9904;52.246;20.898;2023-10-09T03:24:10;100809.88;;;2.07;82.12
19520;BME280;9904;52.246;20.898;2023-10-09T03:26:38;100807.09;;;1.93;82.94
19520;BME280;9904;52.246;20.898;2023-10-09T03:29:04;100810.00;;;1.88;83.20
19520;BME280;9904;52.246;20.898;2023-10-09T03:31:33;100811.09;;;1.84;83.37
19520;BME280;9904;52.246;20.898;2023-10-09T03:34:00;100821.88;;;1.82;83.50
19520;BME280;9904;52.246;20.898;2023-10-09T03:36:27;100815.50;;;1.85;83.72
19520;BME280;9904;52.246;20.898;2023-10-09T03:38:55;100793.34;;;1.83;83.86
19520;BME280;9904;52.246;20.898;2023-10-09T03:41:24;100799.00;;;1.94;83.33
19520;BME280;9904;52.246;20.898;2023-10-09T03:43:55;100792.63;;;1.97;82.84
19520;BME280;9904;52.246;20.898;2023-10-09T03:46:22;100789.69;;;2.01;83.09
19520;BME280;9904;52.246;20.898;2023-10-09T03:48:52;100791.88;;;2.11;82.30
19520;BME280;9904;52.246;20.898;2023-10-09T03:51:22;100795.03;;;2.01;83.43
19520;BME280;9904;52.246;20.898;2023-10-09T03:53:51;100796.53;;;2.07;83.26
19520;BME280;9904;52.246;20.898;2023-10-09T03:56:19;100793.16;;;2.03;83.24
19520;BME280;9904;52.246;20.898;2023-10-09T03:58:49;100795.38;;;1.95;83.62
19520;BME280;9904;52.246;20.898;2023-10-09T04:01:20;100790.97;;;1.94;84.03
19520;BME280;9904;52.246;20.898;2023-10-09T04:03:56;100793.00;;;1.89;84.14
19520;BME280;9904;52.246;20.898;2023-10-09T04:06:27;100795.44;;;1.94;84.37
19520;BME280;9904;52.246;20.898;2023-10-09T04:09:04;100794.69;;;1.92;84.24
19520;BME280;9904;52.246;20.898;2023-10-09T04:11:51;100803.41;;;1.95;84.42
19520;BME280;9904;52.246;20.898;2023-10-09T04:14:39;100797.03;;;1.98;84.42
19520;BME280;9904;52.246;20.898;2023-10-09T04:17:16;100792.53;;;1.98;84.56
19520;BME280;9904;52.246;20.898;2023-10-09T04:19:49;100785.41;;;2.15;83.96
19520;BME280;9904;52.246;20.898;2023-10-09T04:22:39;100803.41;;;2.27;82.99
19520;BME280;9904;52.246;20.898;2023-10-09T04:25:25;100786.09;;;2.34;82.88
19520;BME280;9904;52.246;20.898;2023-10-09T04:27:56;100779.03;;;2.49;82.29
19520;BME280;9904;52.246;20.898;2023-10-09T04:30:39;100777.91;;;2.53;81.62
19520;BME280;9904;52.246;20.898;2023-10-09T04:33:14;100758.88;;;2.60;81.34
19520;BME280;9904;52.246;20.898;2023-10-09T04:36:09;100748.31;;;2.73;80.33
19520;BME280;9904;52.246;20.898;2023-10-09T04:38:45;100749.63;;;2.65;80.48
19520;BME280;9904;52.246;20.898;2023-10-09T04:41:31;100746.00;;;2.66;80.23
19520;BME280;9904;52.246;20.898;2023-10-09T04:44:19;100739.06;;;2.78;80.54
19520;BME280;9904;52.246;20.898;2023-10-09T04:46:48;100738.44;;;2.89;80.19
19520;BME280;9904;52.246;20.898;2023-10-09T04:49:35;100730.09;;;2.79;80.04
19520;BME280;9904;52.246;20.898;2023-10-09T04:52:18;100744.25;;;2.81;80.84
19520;BME280;9904;52.246;20.898;2023-10-09T04:55:06;100723.66;;;2.67;80.58
19520;BME280;9904;52.246;20.898;2023-10-09T04:57:34;100722.56;;;2.72;81.07
19520;BME280;9904;52.246;20.898;2023-10-09T05:00:05;100711.34;;;2.95;79.35
19520;BME280;9904;52.246;20.898;2023-10-09T05:02:59;100722.38;;;3.20;78.78
19520;BME280;9904;52.246;20.898;2023-10-09T05:05:31;100706.13;;;3.23;78.68
19520;BME280;9904;52.246;20.898;2023-10-09T05:08:08;100697.63;;;3.16;78.85
19520;BME280;9904;52.246;20.898;2023-10-09T05:10:52;100698.09;;;3.23;77.70
19520;BME280;9904;52.246;20.898;2023-10-09T05:13:33;100692.00;;;3.21;78.34
19520;BME280;9904;52.246;20.898;2023-10-09T05:16:14;100685.69;;;3.22;77.91
19520;BME280;9904;52.246;20.898;2023-10-09T05:18:56;100669.75;;;3.35;77.01
19520;BME280;9904;52.246;20.898;2023-10-09T05:21:36;100670.34;;;3.54;76.35
19520;BME280;9904;52.246;20.898;2023-10-09T05:24:04;100676.63;;;3.68;75.29
19520;BME280;9904;52.246;20.898;2023-10-09T05:26:48;100680.06;;;3.70;75.58
19520;BME280;9904;52.246;20.898;2023-10-09T05:29:21;100681.41;;;3.77;74.29
19520;BME280;9904;52.246;20.898;2023-10-09T05:32:01;100678.41;;;3.81;74.32
19520;BME280;9904;52.246;20.898;2023-10-09T05:34:41;100681.47;;;3.90;73.73
19520;BME280;9904;52.246;20.898;2023-10-09T05:37:30;100681.94;;;3.96;73.49
19520;BME280;9904;52.246;20.898;2023-10-09T05:40:05;100688.34;;;3.94;73.59
19520;BME280;9904;52.246;20.898;2023-10-09T05:42:45;100685.38;;;3.99;73.39
19520;BME280;9904;52.246;20.898;2023-10-09T05:45:16;100686.03;;;4.02;72.99
19520;BME280;9904;52.246;20.898;2023-10-09T05:47:45;100673.56;;;4.16;72.45
19520;BME280;9904;52.246;20.898;2023-10-09T05:50:18;100676.44;;;4.12;72.69
19520;BME280;9904;52.246;20.898;2023-10-09T05:52:46;100668.88;;;4.19;72.21
19520;BME280;9904;52.246;20.898;2023-10-09T05:55:22;100662.75;;;4.17;72.48
19520;BME280;9904;52.246;20.898;2023-10-09T05:58:15;100661.97;;;4.42;71.53
19520;BME280;9904;52.246;20.898;2023-10-09T06:01:00;100665.31;;;4.46;71.22
19520;BME280;9904;52.246;20.898;2023-10-09T06:03:53;100665.63;;;4.41;71.42
19520;BME280;9904;52.246;20.898;2023-10-09T06:06:31;100661.66;;;4.47;70.95
19520;BME280;9904;52.246;20.898;2023-10-09T06:09:09;100649.50;;;4.56;70.82
19520;BME280;9904;52.246;20.898;2023-10-09T06:11:46;100656.34;;;4.60;70.23
19520;BME280;9904;52.246;20.898;2023-10-09T06:14:22;100657.53;;;4.69;70.19
19520;BME280;9904;52.246;20.898;2023-10-09T06:17:12;100655.09;;;4.66;69.26
19520;BME280;9904;52.246;20.898;2023-10-09T06:19:54;100654.47;;;4.75;68.78
19520;BME280;9904;52.246;20.898;2023-10-09T06:22:47;100665.19;;;4.75;68.64
19520;BME280;9904;52.246;20.898;2023-10-09T06:25:23;100661.00;;;4.84;68.53
19520;BME280;9904;52.246;20.898;2023-10-09T06:27:59;100671.75;;;4.84;68.53
19520;BME280;9904;52.246;20.898;2023-10-09T06:30:26;100664.69;;;4.96;68.32
19520;BME280;9904;52.246;20.898;2023-10-09T06:32:54;100664.69;;;4.96;68.55
19520;BME280;9904;52.246;20.898;2023-10-09T06:35:22;100671.47;;;5.01;68.62
19520;BME280;9904;52.246;20.898;2023-10-09T06:37:49;100673.91;;;5.04;68.87
19520;BME280;9904;52.246;20.898;2023-10-09T06:40:34;100672.31;;;5.15;68.90
19520;BME280;9904;52.246;20.898;2023-10-09T06:43:20;100671.56;;;5.13;68.83
19520;BME280;9904;52.246;20.898;2023-10-09T06:45:53;100664.16;;;5.29;68.91
19520;BME280;9904;52.246;20.898;2023-10-09T06:48:46;100663.72;;;5.35;68.72
19520;BME280;9904;52.246;20.898;2023-10-09T06:51:18;100658.78;;;5.42;68.37
19520;BME280;9904;52.246;20.898;2023-10-09T06:53:57;100665.00;;;5.43;68.06
19520;BME280;9904;52.246;20.898;2023-10-09T06:56:31;100663.28;;;5.54;67.64
19520;BME280;9904;52.246;20.898;2023-10-09T06:59:02;100659.63;;;5.55;67.91
19520;BME280;9904;52.246;20.898;2023-10-09T07:01:48;100670.25;;;5.70;66.89
19520;BME280;9904;52.246;20.898;2023-10-09T07:04:37;100675.16;;;5.76;66.85
19520;BME280;9904;52.246;20.898;2023-10-09T07:07:03;100669.09;;;5.98;66.31
19520;BME280;9904;52.246;20.898;2023-10-09T07:09:39;100660.63;;;6.05;65.97
19520;BME280;9904;52.246;20.898;2023-10-09T07:12:10;100668.81;;;5.90;66.21
19520;BME280;9904;52.246;20.898;2023-10-09T07:14:41;100675.78;;;5.93;66.35
19520;BME280;9904;52.246;20.898;2023-10-09T07:17:29;100674.69;;;5.95;66.66
19520;BME280;9904;52.246;20.898;2023-10-09T07:20:02;100669.16;;;6.23;66.92
19520;BME280;9904;52.246;20.898;2023-10-09T07:22:42;100677.28;;;6.34;65.32
19520;BME280;9904;52.246;20.898;2023-10-09T07:25:23;100676.41;;;6.33;64.73
19520;BME280;9904;52.246;20.898;2023-10-09T07:28:10;100671.00;;;7.29;62.13
19520;BME280;9904;52.246;20.898;2023-10-09T07:30:58;100658.63;;;7.26;61.58
19520;BME280;9904;52.246;20.898;2023-10-09T07:33:27;100667.84;;;9.01;57.50
19520;BME280;9904;52.246;20.898;2023-10-09T07:36:12;100654.38;;;9.63;54.08
19520;BME280;9904;52.246;20.898;2023-10-09T07:38:40;100651.50;;;9.95;52.37
19520;BME280;9904;52.246;20.898;2023-10-09T07:41:10;100644.13;;;10.07;51.86
19520;BME280;9904;52.246;20.898;2023-10-09T07:43:38;100650.13;;;10.11;50.96
19520;BME280;9904;52.246;20.898;2023-10-09T07:46:06;100660.44;;;8.82;53.56
19520;BME280;9904;52.246;20.898;2023-10-09T07:48:56;100661.75;;;8.22;57.20
19520;BME280;9904;52.246;20.898;2023-10-09T07:51:23;100668.28;;;9.06;55.69
19520;BME280;9904;52.246;20.898;2023-10-09T07:53:58;100678.19;;;9.48;53.13
19520;BME280;9904;52.246;20.898;2023-10-09T07:56:34;100663.22;;;8.92;54.60
19520;BME280;9904;52.246;20.898;2023-10-09T07:59:21;100665.69;;;8.62;56.14
19520;BME280;9904;52.246;20.898;2023-10-09T08:01:50;100656.31;;;9.51;54.49
19520;BME280;9904;52.246;20.898;2023-10-09T08:04:29;100646.03;;;10.36;50.85
19520;BME280;9904;52.246;20.898;2023-10-09T08:07:16;100643.63;;;10.43;49.19
19520;BME280;9904;52.246;20.898;2023-10-09T08:10:07;100643.88;;;9.70;50.76
19520;BME280;9904;52.246;20.898;2023-10-09T08:12:44;100638.22;;;9.82;50.87
19520;BME280;9904;52.246;20.898;2023-10-09T08:15:11;100635.63;;;9.71;51.43
19520;BME280;9904;52.246;20.898;2023-10-09T08:17:41;100635.34;;;9.74;51.56
19520;BME280;9904;52.246;20.898;2023-10-09T08:20:15;100627.94;;;9.66;51.97
19520;BME280;9904;52.246;20.898;2023-10-09T08:22:44;100640.69;;;9.55;52.66
19520;BME280;9904;52.246;20.898;2023-10-09T08:25:17;100636.06;;;9.66;52.16
19520;BME280;9904;52.246;20.898;2023-10-09T08:28:00;100637.13;;;9.54;51.52
19520;BME280;9904;52.246;20.898;2023-10-09T08:30:46;100634.59;;;9.62;51.10
19520;BME280;9904;52.246;20.898;2023-10-09T08:33:22;100633.59;;;9.63;51.32
19520;BME280;9904;52.246;20.898;2023-10-09T08:35:55;100639.78;;;10.65;49.60
19520;BME280;9904;52.246;20.898;2023-10-09T08:38:29;100632.25;;;10.69;49.83
19520;BME280;9904;52.246;20.898;2023-10-09T08:41:08;100631.72;;;11.98;46.38
19520;BME280;9904;52.246;20.898;2023-10-09T08:43:51;100622.13;;;11.66;45.56
19520;BME280;9904;52.246;20.898;2023-10-09T08:46:26;100619.78;;;10.07;50.30
19520;BME280;9904;52.246;20.898;2023-10-09T08:48:58;100620.22;;;10.22;50.11
19520;BME280;9904;52.246;20.898;2023-10-09T08:51:31;100620.66;;;10.76;48.85
19520;BME280;9904;52.246;20.898;2023-10-09T08:54:01;100622.81;;;10.83;48.66
19520;BME280;9904;52.246;20.898;2023-10-09T08:56:29;100619.03;;;11.13;47.35
19520;BME280;9904;52.246;20.898;2023-10-09T08:58:58;100620.31;;;11.19;47.25
19520;BME280;9904;52.246;20.898;2023-10-09T09:01:29;100610.91;;;11.13;47.26
19520;BME280;9904;52.246;20.898;2023-10-09T09:03:59;100610.63;;;11.16;47.58
19520;BME280;9904;52.246;20.898;2023-10-09T09:06:26;100608.38;;;11.49;46.02
19520;BME280;9904;52.246;20.898;2023-10-09T09:08:54;100602.59;;;11.62;45.76
19520;BME280;9904;52.246;20.898;2023-10-09T09:11:26;100594.06;;;11.85;44.46
19520;BME280;9904;52.246;20.898;2023-10-09T09:14:02;100587.59;;;11.40;44.07
19520;BME280;9904;52.246;20.898;2023-10-09T09:16:34;100585.22;;;11.55;44.41
19520;BME280;9904;52.246;20.898;2023-10-09T09:19:05;100580.63;;;10.70;47.09
19520;BME280;9904;52.246;20.898;2023-10-09T09:21:49;100570.56;;;11.20;46.65
19520;BME280;9904;52.246;20.898;2023-10-09T09:24:21;100573.34;;;11.38;46.00
19520;BME280;9904;52.246;20.898;2023-10-09T09:26:53;100574.88;;;11.40;45.10
19520;BME280;9904;52.246;20.898;2023-10-09T09:29:38;100570.19;;;11.43;44.11
19520;BME280;9904;52.246;20.898;2023-10-09T09:32:09;100571.38;;;10.63;46.21
19520;BME280;9904;52.246;20.898;2023-10-09T09:34:53;100581.59;;;10.99;46.51
19520;BME280;9904;52.246;20.898;2023-10-09T09:37:28;100574.31;;;10.99;45.88
19520;BME280;9904;52.246;20.898;2023-10-09T09:40:05;100560.81;;;10.80;45.02
19520;BME280;9904;52.246;20.898;2023-10-09T09:42:57;100555.16;;;10.53;45.06
19520;BME280;9904;52.246;20.898;2023-10-09T09:45:37;100561.00;;;10.68;46.00
19520;BME280;9904;52.246;20.898;2023-10-09T09:48:05;100556.34;;;11.08;44.15
19520;BME280;9904;52.246;20.898;2023-10-09T09:50:39;100546.56;;;10.87;44.47
19520;BME280;9904;52.246;20.898;2023-10-09T09:53:14;100538.97;;;11.01;44.85
19520;BME280;9904;52.246;20.898;2023-10-09T09:55:54;100543.16;;;10.85;47.91
19520;BME280;9904;52.246;20.898;2023-10-09T09:58:26;100545.06;;;10.55;47.41
19520;BME280;9904;52.246;20.898;2023-10-09T10:01:10;100541.03;;;10.20;48.27
19520;BME280;9904;52.246;20.898;2023-10-09T10:04:12;100542.03;;;9.90;48.48
19520;BME280;9904;52.246;20.898;2023-10-09T10:06:47;100540.19;;;10.20;46.07
19520;BME280;9904;52.246;20.898;2023-10-09T10:09:43;100533.34;;;10.74;44.67
19520;BME280;9904;52.246;20.898;2023-10-09T10:12:12;100527.09;;;10.25;46.52
19520;BME280;9904;52.246;20.898;2023-10-09T10:14:53;100529.25;;;10.51;47.13
19520;BME280;9904;52.246;20.898;2023-10-09T10:17:26;100519.25;;;10.02;48.14
19520;BME280;9904;52.246;20.898;2023-10-09T10:20:05;100518.84;;;10.17;47.58
19520;BME280;9904;52.246;20.898;2023-10-09T10:22:41;100514.41;;;10.55;45.57
19520;BME280;9904;52.246;20.898;2023-10-09T10:28:23;100503.38;;;10.86;45.36
19520;BME280;9904;52.246;20.898;2023-10-09T10:30:55;100501.47;;;10.96;45.32
19520;BME280;9904;52.246;20.898;2023-10-09T10:33:33;100500.13;;;10.72;46.06
19520;BME280;9904;52.246;20.898;2023-10-09T10:36:14;100508.31;;;10.53;46.75
19520;BME280;9904;52.246;20.898;2023-10-09T10:41:37;100491.94;;;10.05;49.11
19520;BME280;9904;52.246;20.898;2023-10-09T10:44:31;100493.22;;;9.62;49.43
19520;BME280;9904;52.246;20.898;2023-10-09T10:47:06;100488.72;;;9.41;50.15
19520;BME280;9904;52.246;20.898;2023-10-09T10:49:55;100500.19;;;9.14;49.26
19520;BME280;9904;52.246;20.898;2023-10-09T10:52:26;100482.13;;;9.14;50.06
19520;BME280;9904;52.246;20.898;2023-10-09T10:55:16;100481.47;;;9.32;51.76
19520;BME280;9904;52.246;20.898;2023-10-09T10:58:01;100478.97;;;9.60;50.97
19520;BME280;9904;52.246;20.898;2023-10-09T11:00:40;100491.50;;;9.71;51.43
19520;BME280;9904;52.246;20.898;2023-10-09T11:03:25;100484.47;;;9.39;50.52
19520;BME280;9904;52.246;20.898;2023-10-09T11:06:11;100475.63;;;9.36;50.09
19520;BME280;9904;52.246;20.898;2023-10-09T11:08:45;100471.53;;;9.52;50.95
19520;BME280;9904;52.246;20.898;2023-10-09T11:11:23;100472.75;;;9.18;51.65
19520;BME280;9904;52.246;20.898;2023-10-09T11:13:50;100474.88;;;9.15;52.32
19520;BME280;9904;52.246;20.898;2023-10-09T11:16:25;100463.22;;;9.14;52.42
19520;BME280;9904;52.246;20.898;2023-10-09T11:19:11;100464.53;;;9.20;53.70
19520;BME280;9904;52.246;20.898;2023-10-09T11:21:55;100457.13;;;9.22;53.72
19520;BME280;9904;52.246;20.898;2023-10-09T11:24:47;100454.06;;;9.46;53.39
19520;BME280;9904;52.246;20.898;2023-10-09T11:27:27;100460.19;;;9.68;53.40
19520;BME280;9904;52.246;20.898;2023-10-09T11:30:00;100459.16;;;9.40;54.86
19520;BME280;9904;52.246;20.898;2023-10-09T11:32:38;100460.31;;;9.47;55.50
19520;BME280;9904;52.246;20.898;2023-10-09T11:35:13;100467.16;;;9.80;54.47
19520;BME280;9904;52.246;20.898;2023-10-09T11:37:56;100456.22;;;9.62;55.73
19520;BME280;9904;52.246;20.898;2023-10-09T11:40:33;100446.94;;;9.35;57.35
19520;BME280;9904;52.246;20.898;2023-10-09T11:43:19;100444.50;;;9.32;58.43
19520;BME280;9904;52.246;20.898;2023-10-09T11:46:09;100448.34;;;9.30;59.42
19520;BME280;9904;52.246;20.898;2023-10-09T11:48:40;100440.78;;;9.14;60.05
19520;BME280;9904;52.246;20.898;2023-10-09T11:51:13;100436.53;;;9.21;60.58
19520;BME280;9904;52.246;20.898;2023-10-09T11:53:46;100435.66;;;9.20;61.41
19520;BME280;9904;52.246;20.898;2023-10-09T11:56:16;100434.34;;;9.05;62.46
19520;BME280;9904;52.246;20.898;2023-10-09T11:58:49;100432.50;;;9.06;63.14
19520;BME280;9904;52.246;20.898;2023-10-09T12:01:20;100444.72;;;9.10;63.28
19520;BME280;9904;52.246;20.898;2023-10-09T12:03:49;100431.78;;;9.03;63.69
19520;BME280;9904;52.246;20.898;2023-10-09T12:06:17;100433.63;;;9.03;64.39
19520;BME280;9904;52.246;20.898;2023-10-09T12:08:50;100435.16;;;8.96;65.54
19520;BME280;9904;52.246;20.898;2023-10-09T12:11:16;100431.28;;;8.88;65.86
19520;BME280;9904;52.246;20.898;2023-10-09T12:13:56;100448.31;;;9.20;65.25
19520;BME280;9904;52.246;20.898;2023-10-09T12:16:24;100425.63;;;8.92;65.46
19520;BME280;9904;52.246;20.898;2023-10-09T12:19:00;100419.88;;;9.26;65.01
19520;BME280;9904;52.246;20.898;2023-10-09T12:21:29;100413.16;;;9.00;65.55
19520;BME280;9904;52.246;20.898;2023-10-09T12:23:56;100410.16;;;8.94;66.35
19520;BME280;9904;52.246;20.898;2023-10-09T12:26:29;100417.13;;;8.96;66.05
19520;BME280;9904;52.246;20.898;2023-10-09T12:29:02;100409.28;;;8.93;66.90
19520;BME280;9904;52.246;20.898;2023-10-09T12:31:29;100418.94;;;8.96;66.83
19520;BME280;9904;52.246;20.898;2023-10-09T12:34:00;100427.28;;;9.14;65.98
19520;BME280;9904;52.246;20.898;2023-10-09T12:36:28;100417.91;;;9.38;65.17
19520;BME280;9904;52.246;20.898;2023-10-09T12:38:56;100428.09;;;9.04;66.50
19520;BME280;9904;52.246;20.898;2023-10-09T12:41:27;100421.78;;;8.84;67.49
19520;BME280;9904;52.246;20.898;2023-10-09T12:43:56;100417.53;;;8.92;67.86
19520;BME280;9904;52.246;20.898;2023-10-09T12:46:26;100421.19;;;8.81;68.11
19520;BME280;9904;52.246;20.898;2023-10-09T12:48:54;100422.34;;;8.88;67.91
19520;BME280;9904;52.246;20.898;2023-10-09T12:51:22;100418.44;;;9.02;66.67
19520;BME280;9904;52.246;20.898;2023-10-09T12:53:56;100419.53;;;8.99;66.42
19520;BME280;9904;52.246;20.898;2023-10-09T12:56:24;100417.41;;;9.03;66.47
19520;BME280;9904;52.246;20.898;2023-10-09T12:58:59;100425.50;;;9.03;67.43
19520;BME280;9904;52.246;20.898;2023-10-09T13:01:32;100417.69;;;8.90;67.27
19520;BME280;9904;52.246;20.898;2023-10-09T13:03:59;100407.00;;;8.88;67.38
19520;BME280;9904;52.246;20.898;2023-10-09T13:06:35;100408.69;;;8.80;68.94
19520;BME280;9904;52.246;20.898;2023-10-09T13:09:14;100414.31;;;8.67;69.31
19520;BME280;9904;52.246;20.898;2023-10-09T13:11:42;100409.50;;;8.70;69.59
19520;BME280;9904;52.246;20.898;2023-10-09T13:14:10;100405.81;;;8.71;69.29
19520;BME280;9904;52.246;20.898;2023-10-09T13:16:49;100405.00;;;8.81;69.76
19520;BME280;9904;52.246;20.898;2023-10-09T13:19:20;100409.63;;;8.69;69.94
19520;BME280;9904;52.246;20.898;2023-10-09T13:21:52;100404.78;;;8.63;70.00
19520;BME280;9904;52.246;20.898;2023-10-09T13:24:19;100400.19;;;8.53;69.84
19520;BME280;9904;52.246;20.898;2023-10-09T13:26:51;100397.94;;;8.59;69.99
19520;BME280;9904;52.246;20.898;2023-10-09T13:29:18;100397.41;;;8.65;69.46
19520;BME280;9904;52.246;20.898;2023-10-09T13:31:52;100371.66;;;8.51;69.57
19520;BME280;9904;52.246;20.898;2023-10-09T13:34:25;100376.56;;;8.46;70.97
19520;BME280;9904;52.246;20.898;2023-10-09T13:36:55;100373.81;;;8.36;71.05
19520;BME280;9904;52.246;20.898;2023-10-09T13:39:26;100388.28;;;8.35;71.52
19520;BME280;9904;52.246;20.898;2023-10-09T13:41:55;100383.97;;;8.22;71.96
19520;BME280;9904;52.246;20.898;2023-10-09T13:44:27;100381.41;;;8.21;72.38
19520;BME280;9904;52.246;20.898;2023-10-09T13:47:05;100371.63;;;8.20;72.61